createdAt,value
2018-06-28T00:03:16.864Z,17.00
2018-06-28T00:07:20.210Z,16.90
2018-06-28T00:11:23.668Z,16.80
2018-06-28T00:15:27.015Z,16.70
2018-06-28T00:19:30.359Z,16.70
2018-06-28T00:23:33.715Z,16.60
2018-06-28T00:27:37.062Z,16.50
2018-06-28T00:31:40.468Z,16.50
2018-06-28T00:35:43.807Z,16.50
2018-06-28T00:39:47.152Z,16.50
2018-06-28T00:43:50.496Z,16.40
2018-06-28T00:47:53.922Z,16.40
2018-06-28T00:51:57.271Z,16.40
2018-06-28T00:56:00.640Z,16.30
2018-06-28T01:00:04.432Z,16.30
2018-06-28T01:04:07.831Z,16.30
2018-06-28T01:08:11.192Z,16.20
2018-06-28T01:12:14.569Z,16.20
2018-06-28T01:16:17.915Z,16.20
2018-06-28T01:20:21.365Z,16.20
2018-06-28T01:24:24.795Z,16.20
2018-06-28T01:28:28.263Z,16.20
2018-06-28T01:32:31.615Z,16.20
2018-06-28T01:36:34.974Z,16.20
2018-06-28T01:40:38.331Z,16.10
2018-06-28T01:44:41.689Z,16.10
2018-06-28T01:48:45.243Z,16.10
2018-06-28T01:52:48.672Z,16.10
2018-06-28T01:56:52.045Z,16.00
2018-06-28T02:00:55.392Z,15.90
2018-06-28T02:04:58.877Z,15.90
2018-06-28T02:09:02.245Z,15.80
2018-06-28T02:13:06.006Z,15.70
2018-06-28T02:17:09.430Z,15.70
2018-06-28T02:21:12.793Z,15.60
2018-06-28T02:25:16.271Z,15.60
2018-06-28T02:29:19.622Z,15.60
2018-06-28T02:33:22.991Z,15.50
2018-06-28T02:37:27.194Z,15.40
2018-06-28T02:41:30.558Z,15.40
2018-06-28T02:45:33.931Z,15.40
2018-06-28T02:49:37.288Z,15.40
2018-06-28T02:53:40.655Z,15.30
2018-06-28T02:57:44.057Z,15.30
2018-06-28T03:01:47.488Z,15.30
2018-06-28T03:05:50.842Z,15.20
2018-06-28T03:09:54.256Z,15.20
2018-06-28T03:13:57.608Z,15.10
2018-06-28T03:18:00.991Z,15.10
2018-06-28T03:22:04.443Z,14.90
2018-06-28T03:26:07.776Z,14.90
2018-06-28T03:30:11.140Z,14.90
2018-06-28T03:34:14.543Z,14.90
2018-06-28T03:38:17.960Z,14.80
2018-06-28T03:42:21.308Z,14.80
2018-06-28T03:46:24.773Z,14.80
2018-06-28T03:50:28.129Z,14.80
2018-06-28T03:54:31.531Z,14.80
2018-06-28T03:58:35.363Z,14.70
2018-06-28T04:02:38.707Z,14.70
2018-06-28T04:06:42.156Z,14.70
2018-06-28T04:10:45.448Z,14.70
2018-06-28T04:14:49.419Z,14.70
2018-06-28T04:18:52.747Z,14.80
2018-06-28T04:22:56.151Z,14.70
2018-06-28T04:26:59.536Z,14.70
2018-06-28T04:31:03.522Z,14.80
2018-06-28T04:35:09.906Z,14.80
2018-06-28T04:39:13.602Z,14.80
2018-06-28T04:43:16.960Z,14.80
2018-06-28T04:47:20.299Z,14.90
2018-06-28T04:51:23.643Z,14.90
2018-06-28T04:55:26.969Z,15.00
2018-06-28T04:59:30.312Z,15.00
2018-06-28T05:03:33.690Z,15.10
2018-06-28T05:07:37.543Z,15.20
2018-06-28T05:11:40.887Z,15.20
2018-06-28T05:15:44.224Z,15.30
2018-06-28T05:19:47.584Z,15.40
2018-06-28T05:23:50.911Z,15.50
2018-06-28T05:27:54.235Z,15.60
2018-06-28T05:31:57.698Z,15.60
2018-06-28T05:36:01.037Z,15.80
2018-06-28T05:40:04.399Z,15.80
2018-06-28T05:44:07.726Z,15.90
2018-06-28T05:48:11.100Z,16.10
2018-06-28T05:52:14.459Z,16.10
2018-06-28T05:56:17.811Z,16.30
2018-06-28T06:00:21.136Z,16.40
2018-06-28T06:04:24.512Z,16.50
2018-06-28T06:08:27.810Z,16.60
2018-06-28T06:12:31.156Z,16.70
2018-06-28T06:16:40.947Z,16.80
2018-06-28T06:20:44.312Z,16.90
2018-06-28T06:24:47.680Z,17.00
2018-06-28T06:28:50.999Z,17.10
2018-06-28T06:32:54.331Z,17.30
2018-06-28T06:36:57.671Z,17.40
2018-06-28T06:41:01.009Z,17.50
2018-06-28T06:45:04.544Z,17.60
2018-06-28T06:49:07.867Z,17.70
2018-06-28T06:53:11.343Z,17.80
2018-06-28T06:57:14.724Z,18.00
2018-06-28T07:01:18.068Z,18.10
2018-06-28T07:05:21.475Z,18.20
2018-06-28T07:09:24.731Z,18.30
2018-06-28T07:13:28.108Z,18.40
2018-06-28T07:17:31.448Z,18.50
2018-06-28T07:21:34.911Z,18.60
2018-06-28T07:25:38.268Z,18.70
2018-06-28T07:29:41.630Z,18.90
2018-06-28T07:33:44.980Z,19.00
2018-06-28T07:37:48.386Z,19.10
2018-06-28T07:45:54.786Z,19.40
2018-06-28T07:49:58.136Z,19.50
2018-06-28T07:54:01.728Z,19.70
2018-06-28T07:58:05.087Z,19.80
2018-06-28T08:02:08.418Z,20.00
2018-06-28T08:06:11.755Z,20.10
2018-06-28T08:10:15.083Z,20.30
2018-06-28T08:14:18.420Z,20.40
2018-06-28T08:18:21.756Z,20.60
2018-06-28T08:22:25.112Z,20.70
2018-06-28T08:26:28.451Z,20.90
2018-06-28T08:30:32.136Z,21.00
2018-06-28T08:34:35.487Z,21.10
2018-06-28T08:38:38.832Z,21.30
2018-06-28T08:42:42.156Z,21.50
2018-06-28T08:46:45.715Z,21.60
2018-06-28T08:50:49.079Z,21.70
2018-06-28T08:54:52.412Z,21.90
2018-06-28T08:58:55.768Z,22.10
2018-06-28T09:02:59.086Z,22.20
2018-06-28T09:07:02.464Z,22.40
2018-06-28T09:11:05.821Z,22.60
2018-06-28T09:15:09.296Z,22.70
2018-06-28T09:19:12.683Z,22.90
2018-06-28T09:23:16.171Z,23.20
2018-06-28T09:27:19.518Z,23.40
2018-06-28T09:31:22.874Z,23.60
2018-06-28T09:35:26.229Z,23.80
2018-06-28T09:39:29.589Z,24.10
2018-06-28T09:43:32.926Z,24.30
2018-06-28T09:47:36.346Z,24.60
2018-06-28T09:51:39.802Z,24.90
2018-06-28T09:55:43.141Z,25.00
2018-06-28T09:59:46.468Z,25.30
2018-06-28T10:03:49.787Z,25.50
2018-06-28T10:07:53.123Z,25.80
2018-06-28T10:11:56.476Z,26.00
2018-06-28T10:15:59.818Z,26.20
2018-06-28T10:20:03.192Z,26.50
2018-06-28T10:24:06.549Z,26.60
2018-06-28T10:28:09.883Z,26.90
2018-06-28T10:32:13.232Z,27.10
2018-06-28T10:36:16.708Z,27.30
2018-06-28T10:40:20.076Z,27.50
2018-06-28T10:44:23.388Z,27.70
2018-06-28T10:48:26.719Z,27.70
2018-06-28T10:52:30.060Z,27.90
2018-06-28T10:56:33.503Z,28.00
2018-06-28T11:00:36.795Z,28.10
2018-06-28T11:04:40.170Z,28.20
2018-06-28T11:08:43.530Z,28.40
2018-06-28T11:12:46.864Z,28.60
2018-06-28T11:16:50.211Z,28.80
2018-06-28T11:20:53.567Z,28.90
2018-06-28T11:24:56.915Z,29.00
2018-06-28T11:29:00.283Z,29.20
2018-06-28T11:33:03.686Z,29.30
2018-06-28T11:37:07.075Z,29.40
2018-06-28T11:41:10.404Z,29.60
2018-06-28T11:45:13.748Z,29.70
2018-06-28T11:49:17.123Z,29.90
2018-06-28T11:53:20.467Z,30.00
2018-06-28T11:57:23.835Z,30.10
2018-06-28T12:01:27.211Z,30.20
2018-06-28T12:05:30.564Z,30.30
2018-06-28T12:09:33.891Z,30.40
2018-06-28T12:13:37.222Z,30.40
2018-06-28T12:17:40.607Z,30.30
2018-06-28T12:21:44.039Z,30.20
2018-06-28T12:25:47.412Z,30.10
2018-06-28T12:29:50.712Z,30.00
2018-06-28T12:33:54.218Z,29.90
2018-06-28T12:37:57.575Z,29.80
2018-06-28T12:42:00.902Z,29.80
2018-06-28T12:46:04.281Z,29.80
2018-06-28T12:50:14.176Z,29.80
2018-06-28T12:54:17.539Z,29.80
2018-06-28T12:58:20.851Z,29.70
2018-06-28T13:02:24.172Z,29.70
2018-06-28T13:06:27.610Z,29.70
2018-06-28T13:10:30.923Z,29.70
2018-06-28T13:14:34.255Z,29.60
2018-06-28T13:18:37.626Z,29.60
2018-06-28T13:22:41.483Z,29.50
2018-06-28T13:26:44.856Z,29.40
2018-06-28T13:30:48.168Z,29.40
2018-06-28T13:34:51.505Z,29.40
2018-06-28T13:38:54.875Z,29.50
2018-06-28T13:42:58.216Z,29.60
2018-06-28T13:47:01.781Z,29.60
2018-06-28T13:51:05.171Z,29.60
2018-06-28T13:55:11.686Z,29.50
2018-06-28T13:59:15.044Z,29.50
2018-06-28T14:03:18.693Z,29.60
2018-06-28T14:07:21.992Z,29.70
2018-06-28T14:11:25.388Z,29.70
2018-06-28T14:15:28.719Z,29.70
2018-06-28T14:19:33.077Z,29.80
2018-06-28T14:23:36.403Z,29.80
2018-06-28T14:27:39.875Z,29.80
2018-06-28T14:31:43.208Z,29.90
2018-06-28T14:35:46.555Z,30.00
2018-06-28T14:39:49.894Z,30.10
2018-06-28T14:43:53.232Z,30.20
2018-06-28T14:47:56.655Z,30.30
2018-06-28T14:51:59.963Z,30.40
2018-06-28T14:56:03.347Z,30.50
2018-06-28T15:00:07.124Z,30.60
2018-06-28T15:04:10.485Z,30.50
2018-06-28T15:08:13.830Z,30.50
2018-06-28T15:12:17.150Z,30.60
2018-06-28T15:16:20.635Z,30.60
2018-06-28T15:20:24.023Z,30.70
2018-06-28T15:24:27.364Z,30.80
2018-06-28T15:28:30.707Z,30.80
2018-06-28T15:32:34.036Z,30.90
2018-06-28T15:36:37.365Z,30.90
2018-06-28T15:40:40.687Z,31.00
2018-06-28T15:44:44.059Z,31.00
2018-06-28T15:48:48.419Z,31.10
2018-06-28T15:52:51.726Z,31.30
2018-06-28T15:56:55.066Z,31.50
2018-06-28T16:00:58.424Z,31.60
2018-06-28T16:05:01.755Z,31.60
2018-06-28T16:09:07.873Z,31.70
2018-06-28T16:17:15.848Z,31.90
2018-06-28T16:21:19.329Z,32.10
2018-06-28T16:25:22.684Z,32.20
2018-06-28T16:29:26.165Z,32.40
2018-06-28T16:33:29.521Z,32.40
2018-06-28T16:37:33.913Z,32.50
2018-06-28T16:41:37.437Z,32.50
2018-06-28T16:45:40.823Z,32.40
2018-06-28T16:49:44.171Z,32.30
2018-06-28T16:53:47.518Z,32.10
2018-06-28T16:57:50.968Z,32.00
2018-06-28T17:01:54.459Z,31.90
2018-06-28T17:05:57.800Z,31.70
2018-06-28T17:10:01.437Z,31.50
2018-06-28T17:14:05.451Z,31.40
2018-06-28T17:18:08.800Z,31.20
2018-06-28T17:22:12.675Z,31.10
2018-06-28T17:26:16.039Z,31.00
2018-06-28T17:30:19.516Z,30.80
2018-06-28T17:34:22.867Z,30.60
2018-06-28T17:38:26.251Z,30.50
2018-06-28T17:42:29.652Z,30.30
2018-06-28T17:46:33.004Z,30.20
2018-06-28T17:50:36.424Z,30.00
2018-06-28T17:54:39.778Z,29.80
2018-06-28T18:02:46.192Z,29.40
2018-06-28T18:06:49.564Z,29.20
2018-06-28T18:10:52.879Z,28.90
2018-06-28T18:14:56.240Z,28.80
2018-06-28T18:18:59.639Z,28.60
2018-06-28T18:23:03.006Z,28.50
2018-06-28T18:27:12.679Z,28.30
2018-06-28T18:31:16.129Z,28.20
2018-06-28T18:35:19.492Z,28.10
2018-06-28T18:39:22.880Z,27.90
2018-06-28T18:43:26.315Z,27.80
2018-06-28T18:47:29.658Z,27.60
2018-06-28T18:51:33.021Z,27.50
2018-06-28T18:55:36.375Z,27.40
2018-06-28T18:59:39.774Z,27.20
2018-06-28T19:03:43.151Z,27.10
2018-06-28T19:07:46.516Z,27.00
2018-06-28T19:11:50.970Z,26.80
2018-06-28T19:16:00.471Z,26.70
2018-06-28T19:20:04.782Z,26.60
2018-06-28T19:24:08.875Z,26.50
2018-06-28T19:28:13.115Z,26.30
2018-06-28T19:32:22.970Z,26.20
2018-06-28T19:36:26.695Z,26.10
2018-06-28T19:40:35.599Z,25.90
2018-06-28T19:44:39.340Z,25.90
2018-06-28T19:48:44.252Z,25.70
2018-06-28T19:52:52.729Z,25.60
2018-06-28T19:56:56.076Z,25.40
2018-06-28T20:01:05.667Z,25.30
2018-06-28T20:05:09.724Z,25.20
2018-06-28T20:09:13.558Z,25.00
2018-06-28T20:13:22.648Z,24.90
2018-06-28T20:17:31.838Z,24.80
2018-06-28T20:21:35.972Z,24.60
2018-06-28T20:25:39.318Z,24.50
2018-06-28T20:29:48.099Z,24.30
2018-06-28T20:33:56.811Z,24.20
2018-06-28T20:38:00.164Z,24.00
2018-06-28T20:42:03.538Z,23.80
2018-06-28T20:46:06.870Z,23.60
2018-06-28T20:50:10.265Z,23.50
2018-06-28T20:54:13.596Z,23.30
2018-06-28T20:58:16.915Z,23.10
2018-06-28T21:02:20.272Z,23.00
2018-06-28T21:06:24.261Z,22.80
2018-06-28T21:10:27.642Z,22.60
2018-06-28T21:18:34.055Z,22.40
2018-06-28T21:22:37.456Z,22.30
2018-06-28T21:26:40.860Z,22.20
2018-06-28T21:30:44.639Z,22.10
2018-06-28T21:34:48.025Z,22.00
2018-06-28T21:38:51.377Z,21.90
2018-06-28T21:46:57.840Z,21.70
2018-06-28T21:51:01.297Z,21.70
2018-06-28T21:55:05.965Z,21.60
2018-06-28T21:59:09.428Z,21.50
2018-06-28T22:07:15.912Z,21.40
2018-06-28T22:11:19.320Z,21.20
2018-06-28T22:15:25.697Z,21.20
2018-06-28T22:19:29.595Z,21.00
2018-06-28T22:23:33.000Z,21.00
2018-06-28T22:27:36.441Z,20.90
2018-06-28T22:31:39.795Z,20.80
2018-06-28T22:35:43.185Z,20.80
2018-06-28T22:39:46.510Z,20.70
2018-06-28T22:43:50.136Z,20.60
2018-06-28T22:47:53.490Z,20.50
2018-06-28T22:51:57.332Z,20.40
2018-06-28T22:56:00.699Z,20.30
2018-06-28T23:00:04.100Z,20.20
2018-06-28T23:04:07.447Z,20.10
2018-06-28T23:08:10.833Z,19.90
2018-06-28T23:12:14.209Z,19.80
2018-06-28T23:16:17.583Z,19.70
2018-06-28T23:20:21.040Z,19.60
2018-06-28T23:24:24.396Z,19.40
2018-06-28T23:28:27.748Z,19.30
2018-06-28T23:32:31.096Z,19.20
2018-06-28T23:36:34.473Z,19.10
2018-06-28T23:40:37.829Z,19.00
2018-06-28T23:44:41.182Z,18.90
2018-06-28T23:48:44.830Z,18.80
2018-06-28T23:56:51.306Z,18.70
